createdAt,value
2023-03-27T00:00:31.488Z,3.79
2023-03-27T00:01:31.452Z,3.78
2023-03-27T00:02:31.558Z,3.79
2023-03-27T00:03:31.510Z,3.72
2023-03-27T00:04:31.457Z,3.72
2023-03-27T00:05:31.411Z,3.75
2023-03-27T00:06:31.406Z,3.79
2023-03-27T00:07:31.395Z,3.79
2023-03-27T00:08:31.434Z,3.80
2023-03-27T00:09:31.371Z,3.73
2023-03-27T00:10:31.357Z,3.79
2023-03-27T00:11:31.344Z,3.72
2023-03-27T00:12:31.344Z,3.78
2023-03-27T00:13:31.356Z,3.73
2023-03-27T00:14:31.350Z,3.76
2023-03-27T00:15:31.326Z,3.75
2023-03-27T00:16:31.296Z,3.76
2023-03-27T00:17:31.312Z,3.70
2023-03-27T00:18:31.305Z,3.75
2023-03-27T00:19:31.256Z,3.66
2023-03-27T00:20:31.267Z,3.72
2023-03-27T00:21:31.242Z,3.68
2023-03-27T00:22:31.229Z,3.75
2023-03-27T00:23:31.219Z,3.65
2023-03-27T00:24:31.237Z,3.75
2023-03-27T00:25:31.187Z,3.75
2023-03-27T00:26:31.178Z,3.61
2023-03-27T00:27:31.168Z,3.60
2023-03-27T00:28:31.206Z,3.58
2023-03-27T00:29:31.198Z,3.60
2023-03-27T00:30:31.254Z,3.60
2023-03-27T00:31:31.145Z,3.61
2023-03-27T00:32:31.139Z,3.69
2023-03-27T00:33:31.133Z,3.62
2023-03-27T00:34:31.095Z,3.57
2023-03-27T00:35:31.103Z,3.65
2023-03-27T00:36:31.083Z,3.60
2023-03-27T00:37:31.062Z,3.60
2023-03-27T00:38:31.067Z,3.58
2023-03-27T00:39:31.069Z,3.58
2023-03-27T00:40:31.041Z,3.54
2023-03-27T00:41:31.026Z,3.47
2023-03-27T00:42:31.014Z,3.48
2023-03-27T00:43:31.010Z,3.52
2023-03-27T00:44:30.993Z,3.50
2023-03-27T00:45:31.035Z,3.42
2023-03-27T00:46:30.977Z,3.48
2023-03-27T00:47:30.987Z,3.47
2023-03-27T00:48:30.975Z,3.47
2023-03-27T00:49:30.932Z,3.43
2023-03-27T00:50:30.916Z,3.39
2023-03-27T00:51:30.906Z,3.45
2023-03-27T00:52:30.892Z,3.47
2023-03-27T00:53:30.931Z,3.50
2023-03-27T00:54:30.874Z,3.45
2023-03-27T00:55:30.876Z,3.43
2023-03-27T00:56:30.849Z,3.40
2023-03-27T00:57:30.883Z,3.48
2023-03-27T00:58:30.838Z,3.47
2023-03-27T00:59:30.816Z,3.40
2023-03-27T01:00:30.834Z,3.43
2023-03-27T01:01:30.891Z,3.48
2023-03-27T01:02:30.948Z,3.42
2023-03-27T01:03:31.043Z,3.40
2023-03-27T01:04:30.775Z,3.40
2023-03-27T01:05:30.779Z,3.40
2023-03-27T01:06:30.733Z,3.40
2023-03-27T01:07:30.724Z,3.35
2023-03-27T01:08:30.716Z,3.43
2023-03-27T01:09:30.729Z,3.47
2023-03-27T01:10:30.707Z,3.35
2023-03-27T01:11:30.681Z,3.39
2023-03-27T01:12:30.685Z,3.40
2023-03-27T01:13:30.683Z,3.39
2023-03-27T01:14:30.649Z,3.42
2023-03-27T01:15:30.666Z,3.47
2023-03-27T01:16:30.649Z,3.39
2023-03-27T01:17:30.691Z,3.39
2023-03-27T01:18:30.636Z,3.42
2023-03-27T01:19:30.625Z,3.42
2023-03-27T01:20:30.577Z,3.47
2023-03-27T01:21:30.574Z,3.47
2023-03-27T01:22:30.559Z,3.45
2023-03-27T01:23:35.463Z,3.39
2023-03-27T01:24:31.531Z,3.45
2023-03-27T01:25:30.523Z,3.36
2023-03-27T01:26:36.132Z,3.39
2023-03-27T01:27:31.499Z,3.40
2023-03-27T01:28:30.524Z,3.36
2023-03-27T01:29:30.500Z,3.39
2023-03-27T01:30:30.473Z,3.42
2023-03-27T01:31:30.554Z,3.42
2023-03-27T01:32:30.610Z,3.39
2023-03-27T01:33:30.688Z,3.42
2023-03-27T01:34:30.608Z,3.43
2023-03-27T01:35:30.597Z,3.36
2023-03-27T01:36:30.579Z,3.36
2023-03-27T01:37:30.390Z,3.36
2023-03-27T01:38:30.412Z,3.35
2023-03-27T01:39:30.368Z,3.39
2023-03-27T01:40:30.379Z,3.39
2023-03-27T01:41:30.374Z,3.43
2023-03-27T01:42:30.344Z,3.40
2023-03-27T01:43:30.333Z,3.40
2023-03-27T01:44:36.404Z,3.33
2023-03-27T01:45:31.325Z,3.42
2023-03-27T01:46:30.328Z,3.39
2023-03-27T01:47:30.316Z,3.42
2023-03-27T01:48:30.269Z,3.40
2023-03-27T01:49:30.312Z,3.31
2023-03-27T01:50:30.271Z,3.31
2023-03-27T01:51:30.236Z,3.23
2023-03-27T01:52:30.230Z,3.32
2023-03-27T01:53:30.231Z,3.28
2023-03-27T01:54:30.233Z,3.31
2023-03-27T01:55:30.226Z,3.39
2023-03-27T01:56:30.212Z,3.29
2023-03-27T01:57:30.174Z,3.29
2023-03-27T01:58:30.170Z,3.23
2023-03-27T01:59:30.146Z,3.24
2023-03-27T02:00:51.410Z,3.28
2023-03-27T02:01:31.275Z,3.24
2023-03-27T02:02:30.136Z,3.26
2023-03-27T02:03:30.133Z,3.32
2023-03-27T02:04:30.102Z,3.32
2023-03-27T02:05:30.110Z,3.35
2023-03-27T02:06:30.070Z,3.23
2023-03-27T02:07:30.082Z,3.21
2023-03-27T02:08:30.102Z,3.24
2023-03-27T02:09:30.065Z,3.20
2023-03-27T02:10:30.026Z,3.26
2023-03-27T02:11:30.016Z,3.11
2023-03-27T02:12:30.002Z,3.15
2023-03-27T02:13:30.016Z,3.11
2023-03-27T02:14:30.022Z,3.15
2023-03-27T02:15:29.985Z,3.14
2023-03-27T02:16:30.099Z,3.11
2023-03-27T02:17:29.965Z,3.15
2023-03-27T02:18:29.942Z,3.03
2023-03-27T02:19:29.962Z,3.05
2023-03-27T02:20:29.926Z,3.10
2023-03-27T02:21:29.960Z,2.97
2023-03-27T02:22:38.348Z,3.06
2023-03-27T02:23:30.958Z,3.08
2023-03-27T02:24:29.902Z,3.02
2023-03-27T02:25:29.899Z,2.99
2023-03-27T02:26:29.858Z,2.95
2023-03-27T02:27:29.837Z,2.93
2023-03-27T02:28:29.855Z,2.93
2023-03-27T02:29:29.819Z,2.82
2023-03-27T02:30:29.809Z,2.85
2023-03-27T02:31:31.493Z,2.82
2023-03-27T02:32:29.884Z,2.79
2023-03-27T02:33:29.786Z,2.72
2023-03-27T02:34:29.784Z,2.71
2023-03-27T02:35:29.804Z,2.75
2023-03-27T02:36:29.751Z,2.63
2023-03-27T02:37:32.360Z,2.61
2023-03-27T02:38:29.716Z,2.64
2023-03-27T02:39:29.749Z,2.57
2023-03-27T02:40:29.708Z,2.57
2023-03-27T02:41:29.726Z,2.49
2023-03-27T02:42:29.714Z,2.46
2023-03-27T02:43:29.688Z,2.52
2023-03-27T02:44:29.660Z,2.34
2023-03-27T02:45:29.670Z,2.31
2023-03-27T02:46:29.698Z,2.30
2023-03-27T02:47:29.669Z,2.30
2023-03-27T02:48:29.632Z,2.27
2023-03-27T02:49:29.684Z,2.24
2023-03-27T02:50:29.593Z,2.16
2023-03-27T02:51:29.581Z,2.17
2023-03-27T02:52:29.569Z,2.14
2023-03-27T02:53:29.627Z,2.18
2023-03-27T02:54:29.575Z,2.14
2023-03-27T02:55:29.543Z,2.23
2023-03-27T02:56:29.522Z,2.09
2023-03-27T02:57:29.513Z,2.02
2023-03-27T02:58:29.504Z,2.00
2023-03-27T02:59:29.512Z,2.07
2023-03-27T03:00:29.499Z,1.99
2023-03-27T03:01:29.484Z,1.99
2023-03-27T03:02:29.559Z,1.88
2023-03-27T03:03:29.458Z,1.87
2023-03-27T03:04:29.430Z,1.86
2023-03-27T03:05:29.447Z,1.88
2023-03-27T03:06:29.420Z,1.77
2023-03-27T03:07:29.438Z,1.70
2023-03-27T03:08:29.392Z,1.77
2023-03-27T03:09:29.430Z,1.73
2023-03-27T03:10:29.371Z,1.70
2023-03-27T03:11:29.362Z,1.65
2023-03-27T03:12:29.368Z,1.55
2023-03-27T03:13:29.347Z,1.59
2023-03-27T03:14:29.334Z,1.52
2023-03-27T03:15:29.355Z,1.51
2023-03-27T03:16:29.362Z,1.42
2023-03-27T03:17:29.391Z,1.52
2023-03-27T03:18:29.280Z,1.48
2023-03-27T03:19:29.277Z,1.45
2023-03-27T03:20:29.263Z,1.58
2023-03-27T03:21:29.272Z,1.48
2023-03-27T03:22:29.243Z,1.42
2023-03-27T03:23:29.250Z,1.50
2023-03-27T03:24:29.238Z,1.52
2023-03-27T03:25:29.328Z,1.55
2023-03-27T03:26:29.226Z,1.44
2023-03-27T03:27:29.232Z,1.42
2023-03-27T03:28:29.214Z,1.50
2023-03-27T03:29:29.175Z,1.51
2023-03-27T03:30:29.152Z,1.33
2023-03-27T03:31:29.156Z,1.36
2023-03-27T03:32:29.170Z,1.26
2023-03-27T03:33:29.139Z,1.23
2023-03-27T03:34:29.115Z,1.23
2023-03-27T03:35:29.174Z,1.22
2023-03-27T03:36:29.113Z,1.22
2023-03-27T03:37:29.075Z,1.14
2023-03-27T03:38:29.078Z,1.06
2023-03-27T03:39:29.108Z,1.05
2023-03-27T03:40:29.083Z,0.91
2023-03-27T03:41:29.080Z,0.90
2023-03-27T03:42:29.026Z,0.88
2023-03-27T03:43:29.096Z,0.88
2023-03-27T03:44:29.024Z,0.87
2023-03-27T03:45:29.056Z,0.87
2023-03-27T03:46:29.062Z,0.76
2023-03-27T03:47:29.050Z,0.76
2023-03-27T03:48:28.963Z,0.78
2023-03-27T03:49:28.970Z,0.72
2023-03-27T03:50:28.937Z,0.73
2023-03-27T03:51:28.918Z,0.76
2023-03-27T03:52:28.931Z,0.76
2023-03-27T03:53:28.898Z,0.75
2023-03-27T03:54:28.913Z,0.76
2023-03-27T03:55:28.879Z,0.84
2023-03-27T03:56:28.865Z,0.76
2023-03-27T03:57:28.880Z,0.75
2023-03-27T03:58:34.085Z,0.79
2023-03-27T03:59:29.853Z,0.80
2023-03-27T04:00:28.812Z,0.80
2023-03-27T04:01:28.907Z,0.78
2023-03-27T04:02:28.976Z,0.72
2023-03-27T04:03:29.007Z,0.75
2023-03-27T04:04:28.779Z,0.76
2023-03-27T04:05:28.760Z,0.73
2023-03-27T04:06:28.777Z,0.65
2023-03-27T04:07:28.741Z,0.65
2023-03-27T04:08:28.734Z,0.65
2023-03-27T04:09:28.740Z,0.66
2023-03-27T04:10:28.707Z,0.51
2023-03-27T04:11:28.709Z,0.44
2023-03-27T04:12:28.696Z,0.57
2023-03-27T04:13:28.745Z,0.51
2023-03-27T04:14:28.673Z,0.53
2023-03-27T04:15:28.658Z,0.51
2023-03-27T04:16:28.767Z,0.44
2023-03-27T04:17:28.774Z,0.41
2023-03-27T04:18:28.779Z,0.41
2023-03-27T04:19:28.638Z,0.47
2023-03-27T04:20:28.607Z,0.33
2023-03-27T04:21:28.609Z,0.26
2023-03-27T04:22:28.574Z,0.33
2023-03-27T04:23:28.567Z,0.26
2023-03-27T04:24:28.587Z,0.23
2023-03-27T04:25:28.560Z,0.17
2023-03-27T04:26:28.636Z,0.18
2023-03-27T04:27:28.518Z,0.26
2023-03-27T04:28:28.565Z,0.18
2023-03-27T04:29:28.520Z,0.18
2023-03-27T04:30:28.500Z,0.11
2023-03-27T04:31:28.536Z,0.13
2023-03-27T04:32:28.495Z,0.08
2023-03-27T04:33:30.912Z,0.03
2023-03-27T04:34:28.454Z,0.14
2023-03-27T04:35:28.469Z,0.08
2023-03-27T04:36:31.052Z,0.07
2023-03-27T04:37:28.418Z,0.03
2023-03-27T04:38:28.413Z,0.03
2023-03-27T04:39:28.396Z,0.04
2023-03-27T04:40:28.384Z,0.00
2023-03-27T04:41:28.401Z,-0.07
2023-03-27T04:42:28.359Z,-0.10
2023-03-27T04:43:28.353Z,-0.08
2023-03-27T04:44:28.367Z,-0.11
2023-03-27T04:45:28.350Z,-0.05
2023-03-27T04:46:28.331Z,-0.04
2023-03-27T04:47:28.350Z,-0.07
2023-03-27T04:48:28.305Z,0.00
2023-03-27T04:49:28.308Z,-0.03
2023-03-27T04:50:28.282Z,-0.05
2023-03-27T04:51:28.268Z,-0.03
2023-03-27T04:52:28.275Z,0.00
2023-03-27T04:53:28.255Z,-0.03
2023-03-27T04:54:28.247Z,-0.04
2023-03-27T04:55:28.230Z,0.03
2023-03-27T04:56:28.249Z,0.07
2023-03-27T04:57:28.194Z,0.04
2023-03-27T04:58:28.222Z,0.02
2023-03-27T04:59:28.180Z,0.08
2023-03-27T05:00:28.180Z,0.10
2023-03-27T05:01:28.230Z,0.07
2023-03-27T05:02:28.160Z,0.15
2023-03-27T05:03:28.182Z,0.07
2023-03-27T05:04:28.122Z,0.04
2023-03-27T05:05:28.120Z,0.13
2023-03-27T05:06:28.108Z,0.11
2023-03-27T05:07:28.114Z,0.04
2023-03-27T05:08:28.079Z,0.07
2023-03-27T05:09:28.071Z,0.07
2023-03-27T05:10:28.063Z,0.10
2023-03-27T05:11:28.069Z,0.04
2023-03-27T05:12:28.066Z,0.03
2023-03-27T05:13:28.026Z,0.04
2023-03-27T05:14:28.019Z,0.10
2023-03-27T05:15:28.003Z,0.07
2023-03-27T05:16:28.022Z,0.07
2023-03-27T05:17:28.061Z,0.00
2023-03-27T05:18:27.971Z,-0.01
2023-03-27T05:19:28.001Z,0.00
2023-03-27T05:20:27.972Z,0.02
2023-03-27T05:21:27.936Z,0.11
2023-03-27T05:22:27.931Z,0.10
2023-03-27T05:23:27.939Z,0.07
2023-03-27T05:24:27.935Z,0.04
2023-03-27T05:25:27.917Z,0.04
2023-03-27T05:26:27.883Z,0.07
2023-03-27T05:27:27.882Z,0.10
2023-03-27T05:28:27.895Z,0.07
2023-03-27T05:29:27.861Z,0.07
2023-03-27T05:30:27.908Z,0.04
2023-03-27T05:31:27.865Z,0.07
2023-03-27T05:32:27.838Z,-0.01
2023-03-27T05:33:28.855Z,0.02
2023-03-27T05:34:27.794Z,-0.03
2023-03-27T05:35:27.921Z,0.07
2023-03-27T05:36:27.810Z,0.07
2023-03-27T05:37:27.775Z,0.18
2023-03-27T05:38:27.747Z,0.20
2023-03-27T05:39:27.757Z,0.21
2023-03-27T05:40:27.724Z,0.28
2023-03-27T05:41:27.721Z,0.32
2023-03-27T05:42:27.704Z,0.39
2023-03-27T05:43:27.713Z,0.31
2023-03-27T05:44:27.708Z,0.41
2023-03-27T05:45:27.670Z,0.38
2023-03-27T05:46:27.725Z,0.26
2023-03-27T05:47:27.681Z,0.29
2023-03-27T05:48:27.669Z,0.33
2023-03-27T05:49:27.646Z,0.29
2023-03-27T05:50:27.645Z,0.26
2023-03-27T05:51:27.632Z,0.33
2023-03-27T05:52:28.449Z,0.38
2023-03-27T05:53:28.046Z,0.36
2023-03-27T05:54:27.570Z,0.38
2023-03-27T05:55:28.037Z,0.51
2023-03-27T05:56:27.564Z,0.50
2023-03-27T05:57:27.539Z,0.53
2023-03-27T05:58:27.552Z,0.50
2023-03-27T05:59:27.575Z,0.57
2023-03-27T06:00:27.599Z,0.53
2023-03-27T06:01:27.533Z,0.55
2023-03-27T06:02:27.522Z,0.58
2023-03-27T06:03:27.637Z,0.46
2023-03-27T06:04:27.509Z,0.53
2023-03-27T06:05:27.500Z,0.62
2023-03-27T06:06:27.470Z,0.65
2023-03-27T06:07:27.441Z,0.58
2023-03-27T06:08:27.421Z,0.70
2023-03-27T06:09:27.409Z,0.75
2023-03-27T06:10:27.410Z,0.80
2023-03-27T06:11:27.427Z,0.75
2023-03-27T06:12:27.380Z,0.84
2023-03-27T06:13:27.394Z,0.78
2023-03-27T06:14:27.357Z,0.84
2023-03-27T06:15:27.356Z,0.88
2023-03-27T06:16:27.386Z,0.93
2023-03-27T06:17:27.386Z,0.94
2023-03-27T06:18:27.323Z,0.97
2023-03-27T06:19:27.322Z,1.00
2023-03-27T06:20:27.302Z,1.02
2023-03-27T06:21:27.316Z,1.05
2023-03-27T06:22:27.295Z,1.12
2023-03-27T06:23:27.278Z,1.20
2023-03-27T06:24:27.248Z,1.26
2023-03-27T06:25:27.262Z,1.33
2023-03-27T06:26:27.234Z,1.41
2023-03-27T06:27:27.232Z,1.50
2023-03-27T06:28:27.235Z,1.45
2023-03-27T06:29:27.197Z,1.48
2023-03-27T06:30:27.203Z,1.55
2023-03-27T06:31:27.227Z,1.54
2023-03-27T06:32:27.681Z,1.63
2023-03-27T06:33:27.175Z,1.54
2023-03-27T06:34:27.154Z,1.54
2023-03-27T06:35:27.147Z,1.60
2023-03-27T06:36:27.176Z,1.65
2023-03-27T06:37:27.130Z,1.60
2023-03-27T06:38:27.118Z,1.70
2023-03-27T06:39:27.085Z,1.79
2023-03-27T06:40:27.132Z,1.80
2023-03-27T06:41:27.072Z,1.87
2023-03-27T06:42:27.052Z,1.93
2023-03-27T06:43:27.044Z,2.00
2023-03-27T06:44:27.061Z,2.02
2023-03-27T06:45:27.021Z,2.00
2023-03-27T06:46:35.032Z,1.98
2023-03-27T06:47:28.038Z,1.95
2023-03-27T06:48:27.091Z,2.02
2023-03-27T06:49:27.009Z,2.05
2023-03-27T06:50:26.996Z,2.06
2023-03-27T06:51:26.964Z,2.14
2023-03-27T06:52:26.941Z,2.23
2023-03-27T06:53:28.233Z,2.24
2023-03-27T06:54:27.017Z,2.28
2023-03-27T06:55:26.921Z,2.36
2023-03-27T06:56:26.925Z,2.48
2023-03-27T06:57:26.914Z,2.56
2023-03-27T06:58:26.889Z,2.53
2023-03-27T06:59:26.873Z,2.57
2023-03-27T07:00:26.964Z,2.53
2023-03-27T07:01:26.906Z,2.57
2023-03-27T07:02:26.878Z,2.67
2023-03-27T07:03:26.820Z,2.63
2023-03-27T07:04:26.816Z,2.66
2023-03-27T07:05:26.834Z,2.74
2023-03-27T07:06:26.816Z,2.66
2023-03-27T07:07:26.804Z,2.60
2023-03-27T07:08:26.766Z,2.64
2023-03-27T07:09:26.852Z,2.66
2023-03-27T07:10:26.811Z,2.72
2023-03-27T07:11:26.748Z,2.78
2023-03-27T07:12:26.739Z,2.85
2023-03-27T07:13:26.704Z,2.89
2023-03-27T07:14:26.688Z,2.85
2023-03-27T07:15:26.682Z,2.81
2023-03-27T07:16:26.805Z,2.89
2023-03-27T07:17:34.874Z,2.89
2023-03-27T07:18:27.726Z,3.06
2023-03-27T07:19:26.637Z,3.17
2023-03-27T07:20:26.625Z,3.17
2023-03-27T07:21:26.639Z,3.18
2023-03-27T07:22:26.614Z,3.23
2023-03-27T07:23:26.623Z,3.24
2023-03-27T07:24:26.588Z,3.13
2023-03-27T07:25:26.594Z,3.15
2023-03-27T07:26:26.582Z,3.11
2023-03-27T07:27:26.573Z,3.15
2023-03-27T07:28:26.534Z,3.14
2023-03-27T07:29:26.532Z,3.11
2023-03-27T07:30:26.539Z,3.14
2023-03-27T07:31:41.990Z,3.35
2023-03-27T07:32:36.786Z,3.42
2023-03-27T07:33:27.552Z,3.50
2023-03-27T07:34:26.512Z,3.61
2023-03-27T07:35:26.524Z,3.75
2023-03-27T07:36:26.473Z,3.73
2023-03-27T07:37:26.467Z,3.80
2023-03-27T07:38:26.475Z,3.75
2023-03-27T07:39:26.422Z,3.70
2023-03-27T07:40:36.862Z,3.91
2023-03-27T07:41:27.418Z,4.02
2023-03-27T07:42:26.413Z,4.02
2023-03-27T07:43:26.377Z,4.24
2023-03-27T07:44:26.364Z,4.33
2023-03-27T07:45:26.378Z,4.32
2023-03-27T07:46:26.508Z,4.37
2023-03-27T07:47:26.368Z,4.36
2023-03-27T07:48:26.329Z,4.32
2023-03-27T07:49:39.196Z,4.26
2023-03-27T07:50:27.337Z,4.36
2023-03-27T07:51:26.316Z,4.44
2023-03-27T07:52:26.300Z,4.47
2023-03-27T07:53:33.344Z,4.29
2023-03-27T07:54:26.265Z,4.30
2023-03-27T07:55:26.266Z,4.24
2023-03-27T07:56:26.239Z,4.32
2023-03-27T07:57:26.332Z,4.37
2023-03-27T07:58:26.456Z,4.33
2023-03-27T07:59:26.197Z,4.36
2023-03-27T08:00:26.215Z,4.47
2023-03-27T08:01:26.204Z,4.60
2023-03-27T08:02:26.175Z,4.51
2023-03-27T08:03:26.289Z,4.50
2023-03-27T08:04:26.256Z,4.60
2023-03-27T08:05:26.163Z,4.73
2023-03-27T08:06:26.120Z,4.91
2023-03-27T08:07:26.118Z,5.02
2023-03-27T08:08:26.130Z,4.96
2023-03-27T08:09:26.095Z,4.96
2023-03-27T08:10:26.100Z,4.97
2023-03-27T08:11:30.689Z,5.09
2023-03-27T08:12:26.047Z,5.20
2023-03-27T08:13:26.086Z,5.31
2023-03-27T08:14:26.034Z,5.24
2023-03-27T08:15:26.032Z,5.30
2023-03-27T08:16:26.038Z,5.30
2023-03-27T08:17:26.131Z,5.18
2023-03-27T08:18:26.068Z,5.17
2023-03-27T08:19:25.970Z,5.12
2023-03-27T08:20:25.967Z,4.97
2023-03-27T08:21:25.959Z,4.96
2023-03-27T08:22:25.976Z,5.03
2023-03-27T08:23:25.935Z,4.97
2023-03-27T08:24:25.947Z,4.97
2023-03-27T08:25:25.911Z,4.84
2023-03-27T08:26:25.905Z,4.84
2023-03-27T08:27:25.923Z,4.73
2023-03-27T08:28:25.885Z,4.69
2023-03-27T08:29:25.912Z,4.63
2023-03-27T08:30:25.866Z,4.59
2023-03-27T08:31:26.029Z,4.48
2023-03-27T08:32:25.876Z,4.42
2023-03-27T08:33:25.823Z,4.41
2023-03-27T08:34:25.832Z,4.42
2023-03-27T08:35:25.831Z,4.51
2023-03-27T08:36:25.796Z,4.55
2023-03-27T08:37:25.775Z,4.55
2023-03-27T08:38:26.992Z,4.52
2023-03-27T08:39:25.792Z,4.63
2023-03-27T08:40:25.746Z,4.69
2023-03-27T08:41:25.734Z,4.67
2023-03-27T08:42:25.743Z,4.97
2023-03-27T08:43:25.718Z,5.00
2023-03-27T08:44:25.734Z,5.07
2023-03-27T08:45:25.725Z,5.45
2023-03-27T08:46:25.730Z,5.63
2023-03-27T08:47:25.723Z,5.53
2023-03-27T08:48:25.673Z,5.31
2023-03-27T08:49:25.658Z,5.31
2023-03-27T08:50:25.636Z,5.09
2023-03-27T08:51:25.636Z,5.06
2023-03-27T08:52:25.633Z,5.12
2023-03-27T08:53:27.348Z,5.40
2023-03-27T08:54:25.614Z,5.64
2023-03-27T08:55:25.597Z,5.72
2023-03-27T08:56:25.585Z,5.85
2023-03-27T08:57:25.556Z,5.93
2023-03-27T08:58:25.577Z,6.01
2023-03-27T08:59:25.690Z,6.03
2023-03-27T09:00:25.536Z,6.28
2023-03-27T09:01:25.583Z,6.30
2023-03-27T09:02:25.568Z,5.96
2023-03-27T09:03:25.599Z,5.79
2023-03-27T09:04:25.491Z,5.71
2023-03-27T09:05:25.467Z,5.78
2023-03-27T09:06:25.490Z,5.65
2023-03-27T09:07:25.446Z,5.72
2023-03-27T09:08:25.456Z,5.71
2023-03-27T09:09:25.426Z,5.54
2023-03-27T09:10:25.419Z,5.43
2023-03-27T09:11:25.417Z,5.27
2023-03-27T09:12:25.401Z,5.17
2023-03-27T09:13:25.385Z,5.43
2023-03-27T09:14:25.369Z,5.45
2023-03-27T09:15:25.354Z,5.43
2023-03-27T09:16:25.414Z,5.74
2023-03-27T09:17:25.389Z,5.68
2023-03-27T09:18:25.356Z,5.63
2023-03-27T09:19:25.349Z,5.49
2023-03-27T09:20:25.307Z,5.61
2023-03-27T09:21:25.317Z,5.68
2023-03-27T09:22:25.276Z,5.76
2023-03-27T09:23:25.273Z,5.83
2023-03-27T09:24:25.368Z,5.74
2023-03-27T09:25:25.249Z,5.81
2023-03-27T09:26:25.252Z,5.85
2023-03-27T09:27:25.230Z,5.83
2023-03-27T09:28:25.243Z,5.82
2023-03-27T09:29:25.322Z,5.79
2023-03-27T09:30:25.226Z,6.12
2023-03-27T09:31:25.240Z,6.70
2023-03-27T09:32:25.202Z,6.76
2023-03-27T09:33:25.202Z,6.64
2023-03-27T09:34:25.157Z,6.69
2023-03-27T09:35:25.181Z,6.94
2023-03-27T09:36:25.126Z,6.92
2023-03-27T09:37:25.135Z,7.28
2023-03-27T09:38:25.124Z,7.60
2023-03-27T09:39:25.087Z,7.71
2023-03-27T09:40:25.085Z,7.71
2023-03-27T09:41:25.083Z,7.31
2023-03-27T09:42:25.085Z,7.20
2023-03-27T09:43:25.049Z,7.06
2023-03-27T09:44:25.040Z,6.94
2023-03-27T09:45:25.022Z,6.81
2023-03-27T09:46:25.033Z,6.70
2023-03-27T09:47:25.110Z,6.64
2023-03-27T09:48:25.041Z,6.67
2023-03-27T09:49:25.004Z,6.56
2023-03-27T09:50:27.394Z,6.59
2023-03-27T09:51:24.956Z,6.61
2023-03-27T09:52:24.967Z,6.66
2023-03-27T09:53:24.975Z,6.67
2023-03-27T09:54:24.940Z,6.67
2023-03-27T09:55:24.958Z,6.80
2023-03-27T09:56:24.897Z,6.89
2023-03-27T09:57:24.897Z,6.84
2023-03-27T09:58:24.930Z,6.85
2023-03-27T09:59:24.885Z,6.87
2023-03-27T10:00:24.854Z,6.98
2023-03-27T10:01:24.927Z,7.25
2023-03-27T10:02:24.952Z,7.60
2023-03-27T10:03:24.927Z,8.05
2023-03-27T10:04:24.809Z,8.15
2023-03-27T10:05:24.823Z,8.25
2023-03-27T10:06:24.814Z,8.19
2023-03-27T10:07:24.815Z,8.43
2023-03-27T10:08:27.170Z,8.56
2023-03-27T10:09:24.777Z,8.74
2023-03-27T10:10:24.772Z,8.73
2023-03-27T10:11:24.735Z,8.58
2023-03-27T10:12:24.755Z,8.65
2023-03-27T10:13:24.712Z,9.11
2023-03-27T10:14:24.714Z,9.08
2023-03-27T10:15:24.693Z,9.14
2023-03-27T10:16:24.708Z,8.87
2023-03-27T10:17:24.815Z,8.68
2023-03-27T10:18:24.675Z,8.61
2023-03-27T10:19:24.667Z,8.61
2023-03-27T10:20:24.645Z,8.41
2023-03-27T10:21:24.644Z,8.29
2023-03-27T10:22:24.636Z,8.19
2023-03-27T10:23:24.680Z,8.04
2023-03-27T10:24:24.614Z,7.95
2023-03-27T10:25:24.587Z,7.95
2023-03-27T10:26:24.573Z,7.93
2023-03-27T10:27:24.558Z,8.00
2023-03-27T10:28:24.553Z,8.19
2023-03-27T10:29:24.546Z,8.45
2023-03-27T10:30:24.555Z,8.45
2023-03-27T10:31:24.602Z,8.73
2023-03-27T10:32:24.502Z,8.91
2023-03-27T10:33:24.576Z,8.80
2023-03-27T10:34:24.479Z,8.63
2023-03-27T10:35:24.484Z,8.81
2023-03-27T10:36:24.454Z,8.77
2023-03-27T10:37:24.482Z,8.87
2023-03-27T10:38:24.453Z,8.58
2023-03-27T10:39:24.449Z,8.62
2023-03-27T10:40:24.411Z,8.53
2023-03-27T10:41:28.134Z,8.61
2023-03-27T10:42:24.416Z,8.55
2023-03-27T10:43:24.397Z,8.63
2023-03-27T10:44:24.360Z,8.87
2023-03-27T10:45:24.360Z,8.70
2023-03-27T10:46:24.403Z,8.29
2023-03-27T10:47:24.384Z,8.62
2023-03-27T10:48:24.320Z,8.62
2023-03-27T10:49:24.305Z,8.44
2023-03-27T10:50:24.301Z,8.62
2023-03-27T10:51:28.347Z,8.91
2023-03-27T10:52:24.355Z,8.95
2023-03-27T10:53:24.484Z,8.65
2023-03-27T10:54:24.330Z,8.98
2023-03-27T10:55:24.247Z,9.32
2023-03-27T10:56:24.237Z,9.33
2023-03-27T10:57:24.260Z,9.17
2023-03-27T10:58:24.237Z,9.32
2023-03-27T10:59:38.363Z,9.20
2023-03-27T11:00:25.194Z,9.17
2023-03-27T11:01:24.224Z,9.33
2023-03-27T11:02:24.208Z,9.15
2023-03-27T11:03:24.188Z,9.15
2023-03-27T11:04:24.337Z,9.51
2023-03-27T11:05:24.142Z,9.46
2023-03-27T11:06:24.118Z,9.50
2023-03-27T11:07:24.104Z,9.76
2023-03-27T11:08:24.119Z,9.57
2023-03-27T11:09:24.434Z,9.56
2023-03-27T11:10:24.072Z,9.29
2023-03-27T11:11:24.064Z,9.38
2023-03-27T11:12:24.050Z,9.48
2023-03-27T11:13:24.094Z,9.65
2023-03-27T11:14:24.028Z,9.46
2023-03-27T11:15:24.033Z,9.40
2023-03-27T11:16:24.037Z,8.91
2023-03-27T11:17:24.095Z,8.73
2023-03-27T11:18:25.002Z,8.65
2023-03-27T11:19:23.986Z,8.02
2023-03-27T11:20:26.229Z,7.82
2023-03-27T11:21:23.946Z,7.64
2023-03-27T11:22:23.940Z,7.28
2023-03-27T11:23:23.923Z,7.23
2023-03-27T11:24:23.927Z,7.21
2023-03-27T11:25:23.927Z,7.52
2023-03-27T11:26:23.896Z,8.07
2023-03-27T11:27:23.877Z,8.33
2023-03-27T11:28:23.933Z,8.29
2023-03-27T11:29:23.878Z,8.26
2023-03-27T11:30:23.861Z,8.41
2023-03-27T11:31:23.934Z,8.16
2023-03-27T11:32:23.841Z,8.08
2023-03-27T11:33:23.843Z,7.93
2023-03-27T11:34:29.122Z,8.08
2023-03-27T11:35:24.788Z,7.97
2023-03-27T11:36:23.781Z,7.63
2023-03-27T11:37:23.788Z,7.27
2023-03-27T11:38:23.775Z,7.27
2023-03-27T11:39:23.754Z,7.35
2023-03-27T11:40:23.743Z,7.21
2023-03-27T11:41:23.764Z,7.21
2023-03-27T11:42:23.737Z,7.31
2023-03-27T11:43:23.711Z,7.23
2023-03-27T11:44:23.715Z,7.23
2023-03-27T11:45:23.727Z,7.24
2023-03-27T11:46:23.778Z,7.52
2023-03-27T11:47:23.746Z,7.64
2023-03-27T11:48:23.647Z,8.01
2023-03-27T11:49:23.637Z,8.36
2023-03-27T11:50:23.652Z,8.43
2023-03-27T11:51:23.640Z,8.12
2023-03-27T11:52:23.643Z,8.28
2023-03-27T11:53:23.612Z,8.19
2023-03-27T11:54:23.589Z,8.18
2023-03-27T11:55:23.583Z,8.15
2023-03-27T11:56:23.588Z,7.95
2023-03-27T11:57:23.650Z,7.93
2023-03-27T11:58:23.550Z,8.00
2023-03-27T11:59:23.572Z,7.98
2023-03-27T12:00:23.544Z,7.79
2023-03-27T12:01:23.537Z,7.49
2023-03-27T12:02:23.554Z,7.25
2023-03-27T12:03:23.563Z,7.23
2023-03-27T12:04:23.562Z,7.23
2023-03-27T12:05:23.489Z,7.24
2023-03-27T12:06:23.461Z,7.25
2023-03-27T12:07:35.279Z,7.40
2023-03-27T12:08:24.425Z,7.60
2023-03-27T12:09:23.436Z,8.00
2023-03-27T12:10:28.439Z,8.29
2023-03-27T12:11:24.428Z,8.53
2023-03-27T12:12:23.395Z,8.83
2023-03-27T12:13:28.721Z,9.15
2023-03-27T12:14:31.032Z,8.86
2023-03-27T12:15:24.380Z,8.89
2023-03-27T12:16:23.388Z,8.87
2023-03-27T12:17:23.602Z,8.66
2023-03-27T12:18:27.446Z,8.61
2023-03-27T12:19:29.796Z,8.83
2023-03-27T12:20:23.299Z,8.70
2023-03-27T12:21:23.338Z,8.50
2023-03-27T12:22:24.240Z,7.97
2023-03-27T12:23:23.263Z,7.67
2023-03-27T12:24:23.248Z,7.43
2023-03-27T12:25:23.231Z,7.31
2023-03-27T12:26:23.268Z,7.50
2023-03-27T12:27:23.216Z,7.50
2023-03-27T12:28:23.709Z,7.71
2023-03-27T12:29:24.479Z,7.89
2023-03-27T12:30:23.222Z,7.98
2023-03-27T12:31:23.208Z,8.08
2023-03-27T12:32:23.199Z,7.89
2023-03-27T12:33:23.168Z,7.69
2023-03-27T12:34:23.211Z,7.79
2023-03-27T12:35:23.172Z,7.63
2023-03-27T12:36:23.113Z,7.28
2023-03-27T12:37:23.098Z,7.03
2023-03-27T12:38:23.106Z,6.79
2023-03-27T12:39:23.078Z,6.40
2023-03-27T12:40:23.082Z,6.44
2023-03-27T12:41:23.101Z,6.31
2023-03-27T12:42:23.074Z,6.08
2023-03-27T12:43:23.048Z,5.89
2023-03-27T12:44:23.028Z,5.68
2023-03-27T12:45:23.050Z,5.76
2023-03-27T12:46:23.081Z,5.68
2023-03-27T12:47:23.201Z,5.74
2023-03-27T12:48:22.994Z,6.09
2023-03-27T12:49:23.855Z,6.15
2023-03-27T12:50:22.960Z,6.19
2023-03-27T12:51:22.961Z,6.43
2023-03-27T12:52:22.956Z,6.64
2023-03-27T12:53:22.931Z,6.74
2023-03-27T12:54:22.934Z,6.66
2023-03-27T12:55:22.904Z,6.76
2023-03-27T12:56:23.078Z,6.79
2023-03-27T12:57:23.174Z,7.10
2023-03-27T12:58:22.988Z,7.23
2023-03-27T12:59:22.925Z,7.10
2023-03-27T13:00:22.897Z,7.09
2023-03-27T13:01:22.887Z,7.23
2023-03-27T13:02:22.935Z,7.30
2023-03-27T13:03:22.897Z,7.63
2023-03-27T13:04:22.840Z,7.67
2023-03-27T13:05:27.285Z,7.87
2023-03-27T13:06:23.781Z,8.04
2023-03-27T13:07:22.766Z,7.98
2023-03-27T13:08:22.753Z,8.07
2023-03-27T13:09:22.768Z,8.25
2023-03-27T13:10:22.740Z,8.01
2023-03-27T13:11:22.728Z,7.71
2023-03-27T13:12:22.712Z,7.45
2023-03-27T13:13:22.734Z,7.27
2023-03-27T13:14:22.700Z,7.10
2023-03-27T13:15:22.693Z,6.92
2023-03-27T13:16:22.805Z,6.91
2023-03-27T13:17:22.712Z,6.84